Share

Calumet, IA (51009)

Cherokee Municipal (KCKP) Alt. 1227 ft | 42.73 °N, 95.56 °W | Change Station

Current weather conditions updated 11 minutes ago

Clear
Sereno
46 °F
Sembra 42 °F
N
8
Vento Variabile Vento da ENE
Sorgere del sole 6:37 AM
Tramonto del sole 8:07 PM
Luna Gobba a levante

Oggi si prevede un notevole abbassamento della temperatura rispetto a ieri.

Pressione 30.30 in
Visibilità 10.0 miglia
Nuvole Sereno
Raffreddamento del vento 42 °F
Punto di rugiada 28 °F
Umidità 50%
Piovosità 0.00 in
Spessore del manto nevoso Non disponibile.
Raggi UV 9 fuori da 16
Polline 8.40 fuori da 12
Qualità dell'aria Non disponibile.
Flu Activity Sporadic
METAR KCKP 171855Z AUTO 06007KT 10SM CLR 08/M02 A3030 RMK AO2 T00791021

More Conditions Fewer Conditions

Pressione 30.30 in
Visibilità 10.0 miglia
Nuvole Sereno
Raffreddamento del vento 42 °F
Punto di rugiada 28 °F
Umidità 50%
Piovosità 0.00 in
Spessore del manto nevoso Non disponibile.
Raggi UV 9 fuori da 16
Polline 8.40 fuori da 12
Qualità dell'aria Non disponibile.
Flu Activity Sporadic
METAR KCKP 171855Z AUTO 06007KT 10SM CLR 08/M02 A3030 RMK AO2 T00791021

More Conditions Fewer Conditions

10-Day Forecast

Almanac

Astronomia

Apr. 17, 2014 Alba Tramonto
Ora attuale 06:37 CDT 20:07 CDT
Crepuscolo civile 06:07 CDT 20:36 CDT
Crepuscolo nautico 05:31 CDT 21:12 CDT
Crepuscolo astronomico 04:53 CDT 21:51 CDT
Luna 22:56 CDT 08:07 CDT
Estensione della luce visibile 14h 29m
Lunghezza del giorno
13h 29m
Tomorrow will be 2m 45s longer.
Gobba a levante, 93% of the Moon is Illuminated
Oggi
Gobba a levante
Apr 22
Ultimo quarto
Apr 29
Nuovo
Mag 6
Primo quarto
Mag 14
Luna piena

Gli estremi di oggi

State Highs State Lows

Community

  • New Day
    New Day
  • Lake Michigan Sunrise
    Lake Michigan Sunrise
  • sunset from izmir, narlıdere
    sunset from izmir, narlıdere
  • oregon cherry
    oregon cherry
  • Sunset over the Bay
    Sunset over the Bay

WunderPhotos

Upload Photos

1,702,098 foto caricate!

Nearby

Profondità neve

Stazione Profondità Altitudine
Non sono state evidenziate nuove nevicate

Temperature delle acque costiere

Località Temperatura
Nessun dato dalle stazioni

Attività sismica

Città  Distanza Mag. Data & Ora
Non sono state riportate attività sismiche nelle vicinanze.
Minimo Magnitudo Mostrato è 2.5.

Stazioni meteo nelle vicinanze

Ubicazione della stazione Temp. Raffreddamento del vento Punto di rugiada Umidità Vento Precip. Alt. Aggiornato Tipo
MesoWest HOSPER , Hospers, IA 38 °F 38 °F - - Nord  a  - 0.00 in / hr 1375 ft 1:10 PM CDT MADIS
Wilson Street, Sheldon, IA 41.1 °F 41 °F 41 °F 100% Nord  a  0.0 mph 0.00 in / hr 1437 ft 2:06 PM CDT Sequenza Rapida

Show More Stations Show Fewer Stations

What do you think?

We're not finished. Please let us know what you like, what you don't like, and what you are still missing.